CheckWX is a tool to help pilots better visualize weather data.  It is not intended as a substitute for an official pre-flight weather briefing.

10:07:49 UTC

KAEL METAR
Albert Lea Municipal Airport
Albert Lea, Minnesota, USA
Current

32 mins ago

KAEL 200936Z AUTO 11010KT 3/4SM SN OVC003 M06/M07 A2992 RMK AO2
Observed
Feb-20 @ 09:36 UTC
Wind
  • 110° at 10 KTS
Visibility
1,207 meters
Flight Rules
LIFR
Conditions
Snow
Cloud Levels
  • Overcast at 300' AGL
Temperature
-6°C / 21°F
Dewpoint
-7°C / 19°F
Humidity
93%
Altimeter
29.92" Hg
Pressure
1013.22 hPa
Previous

53 mins ago

KAEL 200915Z AUTO 11011G18KT 1SM SN OVC005 M06/M07 A2994 RMK AO2
Observed
Feb-20 @ 09:15 UTC
Wind
  • 110° at 11 KTS
  • Gusting to 18 KTS
Visibility
1,609 meters
Flight Rules
IFR
Conditions
Snow
Cloud Levels
  • Overcast at 500' AGL
Temperature
-6°C / 21°F
Dewpoint
-7°C / 19°F
Humidity
93%
Altimeter
29.94" Hg
Pressure
1013.92 hPa
Previous

1 hour ago

KAEL 200856Z AUTO 11014G20KT 1 1/2SM -SN SCT008 OVC014 M06/M07 A2996 RMK AO2
Observed
Feb-20 @ 08:56 UTC
Wind
  • 110° at 14 KTS
  • Gusting to 20 KTS
Visibility
2,414 meters
Flight Rules
IFR
Conditions
Light Snow
Cloud Levels
  • Scattered at 800' AGL
  • Overcast at 1,400' AGL
Temperature
-6°C / 21°F
Dewpoint
-7°C / 19°F
Humidity
93%
Altimeter
29.96" Hg
Pressure
1014.52 hPa